sensor_id;sensor_type;location;lat;lon;timestamp;P1;durP1;ratioP1;P2;durP2;ratioP2
30072;SDS011;16897;52.422;13.678;2022-11-15T00:00:01;13.88;;;9.80;;
30072;SDS011;16897;52.422;13.678;2022-11-15T00:04:23;15.00;;;9.40;;
30072;SDS011;16897;52.422;13.678;2022-11-15T00:08:43;12.93;;;8.75;;
30072;SDS011;16897;52.422;13.678;2022-11-15T00:13:08;14.70;;;9.30;;
30072;SDS011;16897;52.422;13.678;2022-11-15T00:17:30;14.95;;;8.90;;
30072;SDS011;16897;52.422;13.678;2022-11-15T00:21:50;13.07;;;8.15;;
30072;SDS011;16897;52.422;13.678;2022-11-15T00:26:12;12.15;;;7.88;;
30072;SDS011;16897;52.422;13.678;2022-11-15T00:30:34;13.90;;;9.20;;
30072;SDS011;16897;52.422;13.678;2022-11-15T00:34:54;10.93;;;8.15;;
30072;SDS011;16897;52.422;13.678;2022-11-15T00:39:14;12.65;;;8.18;;
30072;SDS011;16897;52.422;13.678;2022-11-15T00:43:35;11.45;;;8.00;;
30072;SDS011;16897;52.422;13.678;2022-11-15T00:47:56;12.32;;;8.57;;
30072;SDS011;16897;52.422;13.678;2022-11-15T00:52:16;13.50;;;8.80;;
30072;SDS011;16897;52.422;13.678;2022-11-15T00:56:37;12.57;;;8.32;;
30072;SDS011;16897;52.422;13.678;2022-11-15T01:01:08;14.32;;;9.00;;
30072;SDS011;16897;52.422;13.678;2022-11-15T01:05:31;13.00;;;8.80;;
30072;SDS011;16897;52.422;13.678;2022-11-15T01:09:51;12.65;;;9.07;;
30072;SDS011;16897;52.422;13.678;2022-11-15T01:14:12;13.43;;;8.77;;
30072;SDS011;16897;52.422;13.678;2022-11-15T01:18:33;11.38;;;7.78;;
30072;SDS011;16897;52.422;13.678;2022-11-15T01:22:54;12.88;;;8.65;;
30072;SDS011;16897;52.422;13.678;2022-11-15T01:27:14;11.80;;;8.40;;
30072;SDS011;16897;52.422;13.678;2022-11-15T01:31:34;13.55;;;8.75;;
30072;SDS011;16897;52.422;13.678;2022-11-15T01:35:55;12.00;;;8.88;;
30072;SDS011;16897;52.422;13.678;2022-11-15T01:40:16;11.20;;;8.57;;
30072;SDS011;16897;52.422;13.678;2022-11-15T01:49:12;14.88;;;8.52;;
30072;SDS011;16897;52.422;13.678;2022-11-15T01:53:37;13.05;;;8.73;;
30072;SDS011;16897;52.422;13.678;2022-11-15T01:58:02;11.88;;;8.75;;
30072;SDS011;16897;52.422;13.678;2022-11-15T02:02:25;12.00;;;7.85;;
30072;SDS011;16897;52.422;13.678;2022-11-15T02:06:46;13.23;;;8.95;;
30072;SDS011;16897;52.422;13.678;2022-11-15T02:11:08;12.27;;;7.78;;
30072;SDS011;16897;52.422;13.678;2022-11-15T02:15:30;12.55;;;8.13;;
30072;SDS011;16897;52.422;13.678;2022-11-15T02:44:13;12.20;;;8.18;;
30072;SDS011;16897;52.422;13.678;2022-11-15T02:48:45;11.38;;;8.27;;
30072;SDS011;16897;52.422;13.678;2022-11-15T02:53:08;12.07;;;7.68;;
30072;SDS011;16897;52.422;13.678;2022-11-15T03:02:15;14.93;;;8.82;;
30072;SDS011;16897;52.422;13.678;2022-11-15T03:07:05;10.48;;;7.43;;
30072;SDS011;16897;52.422;13.678;2022-11-15T03:11:50;11.57;;;8.27;;
30072;SDS011;16897;52.422;13.678;2022-11-15T03:16:23;10.88;;;7.88;;
30072;SDS011;16897;52.422;13.678;2022-11-15T03:21:05;10.57;;;7.55;;
30072;SDS011;16897;52.422;13.678;2022-11-15T03:25:31;12.57;;;8.18;;
30072;SDS011;16897;52.422;13.678;2022-11-15T03:30:04;11.85;;;8.00;;
30072;SDS011;16897;52.422;13.678;2022-11-15T03:34:29;12.20;;;8.45;;
30072;SDS011;16897;52.422;13.678;2022-11-15T03:39:23;12.75;;;8.13;;
30072;SDS011;16897;52.422;13.678;2022-11-15T03:48:37;11.50;;;7.60;;
30072;SDS011;16897;52.422;13.678;2022-11-15T03:53:06;10.55;;;7.60;;
30072;SDS011;16897;52.422;13.678;2022-11-15T03:57:26;12.15;;;8.13;;
30072;SDS011;16897;52.422;13.678;2022-11-15T04:01:47;12.15;;;8.43;;
30072;SDS011;16897;52.422;13.678;2022-11-15T04:06:07;12.13;;;7.95;;
30072;SDS011;16897;52.422;13.678;2022-11-15T04:10:28;11.98;;;7.78;;
30072;SDS011;16897;52.422;13.678;2022-11-15T04:14:48;12.73;;;8.30;;
30072;SDS011;16897;52.422;13.678;2022-11-15T04:19:26;10.48;;;7.75;;
30072;SDS011;16897;52.422;13.678;2022-11-15T04:24:05;11.70;;;8.25;;
30072;SDS011;16897;52.422;13.678;2022-11-15T04:28:32;10.60;;;7.50;;
30072;SDS011;16897;52.422;13.678;2022-11-15T04:32:53;11.82;;;7.72;;
30072;SDS011;16897;52.422;13.678;2022-11-15T04:37:13;15.88;;;8.75;;
30072;SDS011;16897;52.422;13.678;2022-11-15T04:41:35;12.27;;;8.40;;
30072;SDS011;16897;52.422;13.678;2022-11-15T04:45:56;12.05;;;7.72;;
30072;SDS011;16897;52.422;13.678;2022-11-15T04:50:16;12.23;;;7.95;;
30072;SDS011;16897;52.422;13.678;2022-11-15T04:54:37;10.60;;;7.45;;
30072;SDS011;16897;52.422;13.678;2022-11-15T04:58:57;11.38;;;8.27;;
30072;SDS011;16897;52.422;13.678;2022-11-15T05:03:18;10.40;;;7.35;;
30072;SDS011;16897;52.422;13.678;2022-11-15T05:07:57;9.13;;;7.85;;
30072;SDS011;16897;52.422;13.678;2022-11-15T05:12:17;9.75;;;7.07;;
30072;SDS011;16897;52.422;13.678;2022-11-15T05:16:38;12.73;;;8.20;;
30072;SDS011;16897;52.422;13.678;2022-11-15T05:21:03;11.50;;;8.73;;
30072;SDS011;16897;52.422;13.678;2022-11-15T05:25:28;9.85;;;7.20;;
30072;SDS011;16897;52.422;13.678;2022-11-15T05:29:49;11.27;;;7.82;;
30072;SDS011;16897;52.422;13.678;2022-11-15T05:34:09;10.68;;;7.47;;
30072;SDS011;16897;52.422;13.678;2022-11-15T05:38:30;9.95;;;7.05;;
30072;SDS011;16897;52.422;13.678;2022-11-15T05:42:51;11.43;;;7.78;;
30072;SDS011;16897;52.422;13.678;2022-11-15T05:47:12;10.40;;;7.35;;
30072;SDS011;16897;52.422;13.678;2022-11-15T05:51:41;12.57;;;7.63;;
30072;SDS011;16897;52.422;13.678;2022-11-15T05:56:06;11.60;;;7.90;;
30072;SDS011;16897;52.422;13.678;2022-11-15T06:00:28;10.63;;;7.22;;
30072;SDS011;16897;52.422;13.678;2022-11-15T06:04:49;10.88;;;7.68;;
30072;SDS011;16897;52.422;13.678;2022-11-15T06:09:10;11.70;;;7.22;;
30072;SDS011;16897;52.422;13.678;2022-11-15T06:13:30;12.43;;;8.05;;
30072;SDS011;16897;52.422;13.678;2022-11-15T06:17:52;14.00;;;8.38;;
30072;SDS011;16897;52.422;13.678;2022-11-15T06:22:16;11.45;;;8.00;;
30072;SDS011;16897;52.422;13.678;2022-11-15T06:26:36;10.93;;;7.68;;
30072;SDS011;16897;52.422;13.678;2022-11-15T06:31:03;12.50;;;8.50;;
30072;SDS011;16897;52.422;13.678;2022-11-15T06:35:32;10.75;;;8.15;;
30072;SDS011;16897;52.422;13.678;2022-11-15T06:39:54;9.88;;;6.93;;
30072;SDS011;16897;52.422;13.678;2022-11-15T06:44:14;11.25;;;7.50;;
30072;SDS011;16897;52.422;13.678;2022-11-15T06:48:36;11.30;;;7.65;;
30072;SDS011;16897;52.422;13.678;2022-11-15T06:53:00;11.93;;;7.78;;
30072;SDS011;16897;52.422;13.678;2022-11-15T06:57:22;12.90;;;7.53;;
30072;SDS011;16897;52.422;13.678;2022-11-15T07:01:42;12.07;;;7.85;;
30072;SDS011;16897;52.422;13.678;2022-11-15T07:06:03;11.30;;;7.93;;
30072;SDS011;16897;52.422;13.678;2022-11-15T07:10:23;11.90;;;7.70;;
30072;SDS011;16897;52.422;13.678;2022-11-15T07:14:45;11.55;;;8.07;;
30072;SDS011;16897;52.422;13.678;2022-11-15T07:19:05;13.05;;;7.72;;
30072;SDS011;16897;52.422;13.678;2022-11-15T07:23:28;11.98;;;8.05;;
30072;SDS011;16897;52.422;13.678;2022-11-15T07:27:58;10.98;;;7.47;;
30072;SDS011;16897;52.422;13.678;2022-11-15T07:32:19;10.57;;;7.55;;
30072;SDS011;16897;52.422;13.678;2022-11-15T07:36:39;11.30;;;7.70;;
30072;SDS011;16897;52.422;13.678;2022-11-15T07:41:00;12.98;;;8.10;;
30072;SDS011;16897;52.422;13.678;2022-11-15T07:45:23;13.90;;;8.57;;
30072;SDS011;16897;52.422;13.678;2022-11-15T07:49:47;12.68;;;8.52;;
30072;SDS011;16897;52.422;13.678;2022-11-15T07:54:07;10.48;;;7.88;;
30072;SDS011;16897;52.422;13.678;2022-11-15T07:58:27;11.13;;;7.70;;
30072;SDS011;16897;52.422;13.678;2022-11-15T08:02:47;11.75;;;7.65;;
30072;SDS011;16897;52.422;13.678;2022-11-15T08:07:08;12.50;;;8.32;;
30072;SDS011;16897;52.422;13.678;2022-11-15T08:11:28;10.32;;;7.63;;
30072;SDS011;16897;52.422;13.678;2022-11-15T08:15:48;12.63;;;8.38;;
30072;SDS011;16897;52.422;13.678;2022-11-15T08:20:09;13.25;;;8.25;;
30072;SDS011;16897;52.422;13.678;2022-11-15T08:24:30;11.10;;;7.93;;
30072;SDS011;16897;52.422;13.678;2022-11-15T08:28:50;19.00;;;8.48;;
30072;SDS011;16897;52.422;13.678;2022-11-15T08:33:11;10.05;;;7.88;;
30072;SDS011;16897;52.422;13.678;2022-11-15T08:37:33;11.25;;;7.80;;
30072;SDS011;16897;52.422;13.678;2022-11-15T08:41:53;11.02;;;7.75;;
30072;SDS011;16897;52.422;13.678;2022-11-15T08:46:13;12.18;;;8.85;;
30072;SDS011;16897;52.422;13.678;2022-11-15T08:50:34;14.27;;;8.73;;
30072;SDS011;16897;52.422;13.678;2022-11-15T08:54:54;11.57;;;8.73;;
30072;SDS011;16897;52.422;13.678;2022-11-15T08:59:14;11.93;;;8.45;;
30072;SDS011;16897;52.422;13.678;2022-11-15T09:03:35;12.38;;;8.98;;
30072;SDS011;16897;52.422;13.678;2022-11-15T09:07:55;14.88;;;9.15;;
30072;SDS011;16897;52.422;13.678;2022-11-15T09:12:15;15.45;;;8.68;;
30072;SDS011;16897;52.422;13.678;2022-11-15T09:16:36;12.95;;;9.18;;
30072;SDS011;16897;52.422;13.678;2022-11-15T09:20:57;12.82;;;9.45;;
30072;SDS011;16897;52.422;13.678;2022-11-15T09:25:19;14.48;;;10.27;;
30072;SDS011;16897;52.422;13.678;2022-11-15T09:29:39;15.73;;;10.77;;
30072;SDS011;16897;52.422;13.678;2022-11-15T09:33:59;15.45;;;10.68;;
30072;SDS011;16897;52.422;13.678;2022-11-15T09:38:20;16.50;;;11.02;;
30072;SDS011;16897;52.422;13.678;2022-11-15T09:51:57;19.75;;;12.50;;
30072;SDS011;16897;52.422;13.678;2022-11-15T09:56:00;16.65;;;11.50;;
30072;SDS011;16897;52.422;13.678;2022-11-15T10:04:32;16.58;;;11.82;;
30072;SDS011;16897;52.422;13.678;2022-11-15T10:08:40;15.77;;;11.13;;
30072;SDS011;16897;52.422;13.678;2022-11-15T10:12:54;13.88;;;10.85;;
30072;SDS011;16897;52.422;13.678;2022-11-15T10:21:41;15.02;;;11.43;;
30072;SDS011;16897;52.422;13.678;2022-11-15T10:26:16;13.20;;;10.48;;
30072;SDS011;16897;52.422;13.678;2022-11-15T10:30:18;14.27;;;10.70;;
30072;SDS011;16897;52.422;13.678;2022-11-15T10:34:22;13.63;;;10.52;;
30072;SDS011;16897;52.422;13.678;2022-11-15T10:38:24;12.23;;;9.90;;
30072;SDS011;16897;52.422;13.678;2022-11-15T10:42:28;13.20;;;9.98;;
30072;SDS011;16897;52.422;13.678;2022-11-15T10:46:30;12.32;;;9.95;;
30072;SDS011;16897;52.422;13.678;2022-11-15T10:50:32;13.48;;;10.43;;
30072;SDS011;16897;52.422;13.678;2022-11-15T10:58:53;13.85;;;10.25;;
30072;SDS011;16897;52.422;13.678;2022-11-15T11:02:59;12.38;;;9.55;;
30072;SDS011;16897;52.422;13.678;2022-11-15T11:07:08;13.10;;;9.63;;
30072;SDS011;16897;52.422;13.678;2022-11-15T11:11:23;12.68;;;9.65;;
30072;SDS011;16897;52.422;13.678;2022-11-15T11:15:46;11.35;;;8.75;;
30072;SDS011;16897;52.422;13.678;2022-11-15T11:33:54;12.02;;;8.70;;
30072;SDS011;16897;52.422;13.678;2022-11-15T11:38:09;10.63;;;8.27;;
30072;SDS011;16897;52.422;13.678;2022-11-15T11:47:27;12.48;;;7.78;;
30072;SDS011;16897;52.422;13.678;2022-11-15T11:51:45;10.15;;;8.10;;
30072;SDS011;16897;52.422;13.678;2022-11-15T11:56:31;11.18;;;8.25;;
30072;SDS011;16897;52.422;13.678;2022-11-15T12:00:38;12.80;;;7.95;;
30072;SDS011;16897;52.422;13.678;2022-11-15T12:09:55;10.23;;;8.35;;
30072;SDS011;16897;52.422;13.678;2022-11-15T12:14:10;12.40;;;8.18;;
30072;SDS011;16897;52.422;13.678;2022-11-15T12:18:25;12.73;;;8.30;;
30072;SDS011;16897;52.422;13.678;2022-11-15T12:26:48;9.38;;;7.85;;
30072;SDS011;16897;52.422;13.678;2022-11-15T12:31:23;9.93;;;7.78;;
30072;SDS011;16897;52.422;13.678;2022-11-15T12:35:35;9.77;;;7.53;;
30072;SDS011;16897;52.422;13.678;2022-11-15T12:44:16;8.40;;;6.75;;
30072;SDS011;16897;52.422;13.678;2022-11-15T12:53:07;9.07;;;7.22;;
30072;SDS011;16897;52.422;13.678;2022-11-15T12:57:28;7.43;;;5.88;;
30072;SDS011;16897;52.422;13.678;2022-11-15T13:05:57;7.22;;;6.25;;
30072;SDS011;16897;52.422;13.678;2022-11-15T13:10:27;7.07;;;6.38;;
30072;SDS011;16897;52.422;13.678;2022-11-15T13:14:39;8.43;;;6.60;;
30072;SDS011;16897;52.422;13.678;2022-11-15T13:18:53;7.47;;;6.25;;
30072;SDS011;16897;52.422;13.678;2022-11-15T13:27:12;7.47;;;6.53;;
30072;SDS011;16897;52.422;13.678;2022-11-15T13:31:26;7.93;;;5.75;;
30072;SDS011;16897;52.422;13.678;2022-11-15T13:35:41;7.13;;;5.85;;
30072;SDS011;16897;52.422;13.678;2022-11-15T13:39:47;9.35;;;5.72;;
30072;SDS011;16897;52.422;13.678;2022-11-15T13:43:50;8.30;;;6.03;;
30072;SDS011;16897;52.422;13.678;2022-11-15T13:47:57;7.97;;;6.07;;
30072;SDS011;16897;52.422;13.678;2022-11-15T13:52:04;6.45;;;5.68;;
30072;SDS011;16897;52.422;13.678;2022-11-15T13:56:08;7.22;;;5.03;;
30072;SDS011;16897;52.422;13.678;2022-11-15T14:04:31;6.35;;;5.22;;
30072;SDS011;16897;52.422;13.678;2022-11-15T14:13:10;6.07;;;5.38;;
30072;SDS011;16897;52.422;13.678;2022-11-15T14:17:36;6.20;;;4.70;;
30072;SDS011;16897;52.422;13.678;2022-11-15T14:26:26;5.47;;;4.63;;
30072;SDS011;16897;52.422;13.678;2022-11-15T14:30:34;6.93;;;5.15;;
30072;SDS011;16897;52.422;13.678;2022-11-15T14:34:36;6.47;;;5.28;;
30072;SDS011;16897;52.422;13.678;2022-11-15T14:38:37;6.88;;;5.35;;
30072;SDS011;16897;52.422;13.678;2022-11-15T14:42:39;6.43;;;5.80;;
30072;SDS011;16897;52.422;13.678;2022-11-15T14:46:41;6.15;;;5.15;;
30072;SDS011;16897;52.422;13.678;2022-11-15T14:50:42;6.32;;;4.97;;
30072;SDS011;16897;52.422;13.678;2022-11-15T14:54:45;6.78;;;5.35;;
30072;SDS011;16897;52.422;13.678;2022-11-15T14:58:47;5.32;;;4.82;;
30072;SDS011;16897;52.422;13.678;2022-11-15T15:02:50;7.05;;;5.35;;
30072;SDS011;16897;52.422;13.678;2022-11-15T15:06:54;5.25;;;4.75;;
30072;SDS011;16897;52.422;13.678;2022-11-15T15:10:56;5.93;;;4.85;;
30072;SDS011;16897;52.422;13.678;2022-11-15T15:14:58;5.55;;;4.95;;
30072;SDS011;16897;52.422;13.678;2022-11-15T15:18:59;6.07;;;5.03;;
30072;SDS011;16897;52.422;13.678;2022-11-15T15:23:01;11.25;;;5.07;;
30072;SDS011;16897;52.422;13.678;2022-11-15T15:27:02;6.13;;;4.63;;
30072;SDS011;16897;52.422;13.678;2022-11-15T15:31:04;5.60;;;4.97;;
30072;SDS011;16897;52.422;13.678;2022-11-15T15:35:07;5.68;;;4.65;;
30072;SDS011;16897;52.422;13.678;2022-11-15T15:39:12;5.90;;;5.05;;
30072;SDS011;16897;52.422;13.678;2022-11-15T15:43:13;5.65;;;4.38;;
30072;SDS011;16897;52.422;13.678;2022-11-15T15:47:19;5.65;;;4.75;;
30072;SDS011;16897;52.422;13.678;2022-11-15T15:51:22;6.28;;;5.32;;
30072;SDS011;16897;52.422;13.678;2022-11-15T15:55:24;6.38;;;5.25;;
30072;SDS011;16897;52.422;13.678;2022-11-15T15:59:27;8.57;;;6.03;;
30072;SDS011;16897;52.422;13.678;2022-11-15T16:03:29;8.73;;;6.85;;
30072;SDS011;16897;52.422;13.678;2022-11-15T16:07:31;7.45;;;5.35;;
30072;SDS011;16897;52.422;13.678;2022-11-15T16:11:33;7.20;;;6.20;;
30072;SDS011;16897;52.422;13.678;2022-11-15T16:15:34;8.63;;;6.82;;
30072;SDS011;16897;52.422;13.678;2022-11-15T16:19:36;6.68;;;5.18;;
30072;SDS011;16897;52.422;13.678;2022-11-15T16:23:38;8.57;;;5.72;;
30072;SDS011;16897;52.422;13.678;2022-11-15T16:27:40;6.03;;;4.78;;
30072;SDS011;16897;52.422;13.678;2022-11-15T16:31:45;5.50;;;4.70;;
30072;SDS011;16897;52.422;13.678;2022-11-15T16:35:47;7.05;;;5.43;;
30072;SDS011;16897;52.422;13.678;2022-11-15T16:39:49;6.78;;;4.68;;
30072;SDS011;16897;52.422;13.678;2022-11-15T16:43:51;5.18;;;4.30;;
30072;SDS011;16897;52.422;13.678;2022-11-15T16:47:53;5.68;;;5.05;;
30072;SDS011;16897;52.422;13.678;2022-11-15T16:51:55;7.20;;;4.18;;
30072;SDS011;16897;52.422;13.678;2022-11-15T16:55:57;10.88;;;5.35;;
30072;SDS011;16897;52.422;13.678;2022-11-15T16:59:58;8.25;;;5.32;;
30072;SDS011;16897;52.422;13.678;2022-11-15T17:04:00;7.85;;;5.60;;
30072;SDS011;16897;52.422;13.678;2022-11-15T17:08:16;8.00;;;5.95;;
30072;SDS011;16897;52.422;13.678;2022-11-15T17:12:20;9.50;;;7.78;;
30072;SDS011;16897;52.422;13.678;2022-11-15T17:16:21;12.68;;;9.80;;
30072;SDS011;16897;52.422;13.678;2022-11-15T17:20:23;15.63;;;10.63;;
30072;SDS011;16897;52.422;13.678;2022-11-15T17:24:25;17.30;;;12.88;;
30072;SDS011;16897;52.422;13.678;2022-11-15T17:28:27;16.42;;;11.85;;
30072;SDS011;16897;52.422;13.678;2022-11-15T17:32:29;17.27;;;13.18;;
30072;SDS011;16897;52.422;13.678;2022-11-15T17:36:31;17.13;;;12.77;;
30072;SDS011;16897;52.422;13.678;2022-11-15T17:40:34;16.58;;;11.65;;
30072;SDS011;16897;52.422;13.678;2022-11-15T17:44:36;19.02;;;12.80;;
30072;SDS011;16897;52.422;13.678;2022-11-15T17:48:37;18.55;;;13.02;;
30072;SDS011;16897;52.422;13.678;2022-11-15T17:52:40;20.08;;;12.82;;
30072;SDS011;16897;52.422;13.678;2022-11-15T17:56:44;20.30;;;13.40;;
30072;SDS011;16897;52.422;13.678;2022-11-15T18:00:46;18.70;;;13.25;;
30072;SDS011;16897;52.422;13.678;2022-11-15T18:04:49;19.80;;;14.13;;
30072;SDS011;16897;52.422;13.678;2022-11-15T18:08:51;22.13;;;12.43;;
30072;SDS011;16897;52.422;13.678;2022-11-15T18:12:57;15.80;;;11.38;;
30072;SDS011;16897;52.422;13.678;2022-11-15T18:16:59;21.50;;;14.23;;
30072;SDS011;16897;52.422;13.678;2022-11-15T18:25:06;20.95;;;14.45;;
30072;SDS011;16897;52.422;13.678;2022-11-15T18:29:08;20.02;;;14.18;;
30072;SDS011;16897;52.422;13.678;2022-11-15T18:33:10;20.48;;;13.98;;
30072;SDS011;16897;52.422;13.678;2022-11-15T18:37:11;20.83;;;14.07;;
30072;SDS011;16897;52.422;13.678;2022-11-15T18:41:15;17.55;;;12.70;;
30072;SDS011;16897;52.422;13.678;2022-11-15T18:45:20;20.13;;;13.32;;
30072;SDS011;16897;52.422;13.678;2022-11-15T18:49:21;18.15;;;12.43;;
30072;SDS011;16897;52.422;13.678;2022-11-15T18:53:23;20.95;;;13.52;;
30072;SDS011;16897;52.422;13.678;2022-11-15T18:57:25;19.52;;;13.68;;
30072;SDS011;16897;52.422;13.678;2022-11-15T19:01:33;18.33;;;12.70;;
30072;SDS011;16897;52.422;13.678;2022-11-15T19:05:40;19.27;;;12.80;;
30072;SDS011;16897;52.422;13.678;2022-11-15T19:09:42;21.05;;;14.88;;
30072;SDS011;16897;52.422;13.678;2022-11-15T19:13:44;21.58;;;14.38;;
30072;SDS011;16897;52.422;13.678;2022-11-15T19:17:46;18.20;;;13.60;;
30072;SDS011;16897;52.422;13.678;2022-11-15T19:21:47;22.10;;;14.18;;
30072;SDS011;16897;52.422;13.678;2022-11-15T19:25:53;21.15;;;14.90;;
30072;SDS011;16897;52.422;13.678;2022-11-15T19:29:56;21.40;;;14.95;;
30072;SDS011;16897;52.422;13.678;2022-11-15T19:33:58;20.83;;;14.10;;
30072;SDS011;16897;52.422;13.678;2022-11-15T19:38:04;20.38;;;13.63;;
30072;SDS011;16897;52.422;13.678;2022-11-15T19:42:05;22.88;;;15.07;;
30072;SDS011;16897;52.422;13.678;2022-11-15T19:46:09;19.73;;;13.00;;
30072;SDS011;16897;52.422;13.678;2022-11-15T19:50:12;17.05;;;12.57;;
30072;SDS011;16897;52.422;13.678;2022-11-15T19:54:13;18.90;;;13.40;;
30072;SDS011;16897;52.422;13.678;2022-11-15T19:58:16;17.67;;;12.00;;
30072;SDS011;16897;52.422;13.678;2022-11-15T20:02:18;20.98;;;12.88;;
30072;SDS011;16897;52.422;13.678;2022-11-15T20:06:27;18.38;;;12.15;;
30072;SDS011;16897;52.422;13.678;2022-11-15T20:10:34;18.40;;;11.77;;
30072;SDS011;16897;52.422;13.678;2022-11-15T20:14:36;19.35;;;13.95;;
30072;SDS011;16897;52.422;13.678;2022-11-15T20:18:37;17.55;;;11.90;;
30072;SDS011;16897;52.422;13.678;2022-11-15T20:22:39;16.90;;;12.23;;
30072;SDS011;16897;52.422;13.678;2022-11-15T20:26:41;17.00;;;12.63;;
30072;SDS011;16897;52.422;13.678;2022-11-15T20:30:44;16.30;;;10.95;;
30072;SDS011;16897;52.422;13.678;2022-11-15T20:34:46;17.63;;;12.73;;
30072;SDS011;16897;52.422;13.678;2022-11-15T20:38:48;17.58;;;12.48;;
30072;SDS011;16897;52.422;13.678;2022-11-15T20:42:53;17.30;;;12.60;;
30072;SDS011;16897;52.422;13.678;2022-11-15T20:46:55;16.83;;;12.23;;
30072;SDS011;16897;52.422;13.678;2022-11-15T20:51:04;19.35;;;12.70;;
30072;SDS011;16897;52.422;13.678;2022-11-15T20:55:09;15.65;;;11.10;;
30072;SDS011;16897;52.422;13.678;2022-11-15T20:59:11;14.60;;;11.00;;
30072;SDS011;16897;52.422;13.678;2022-11-15T21:03:13;14.35;;;10.68;;
30072;SDS011;16897;52.422;13.678;2022-11-15T21:07:14;19.27;;;12.68;;
30072;SDS011;16897;52.422;13.678;2022-11-15T21:11:16;16.75;;;11.13;;
30072;SDS011;16897;52.422;13.678;2022-11-15T21:15:37;16.80;;;11.15;;
30072;SDS011;16897;52.422;13.678;2022-11-15T21:19:39;15.52;;;11.38;;
30072;SDS011;16897;52.422;13.678;2022-11-15T21:23:41;16.05;;;10.98;;
30072;SDS011;16897;52.422;13.678;2022-11-15T21:27:43;17.95;;;12.82;;
30072;SDS011;16897;52.422;13.678;2022-11-15T21:31:45;18.15;;;11.95;;
30072;SDS011;16897;52.422;13.678;2022-11-15T21:35:49;16.65;;;11.25;;
30072;SDS011;16897;52.422;13.678;2022-11-15T21:39:51;17.75;;;10.48;;
30072;SDS011;16897;52.422;13.678;2022-11-15T21:43:59;17.10;;;11.32;;
30072;SDS011;16897;52.422;13.678;2022-11-15T21:48:03;15.20;;;10.73;;
30072;SDS011;16897;52.422;13.678;2022-11-15T21:52:05;17.88;;;12.02;;
30072;SDS011;16897;52.422;13.678;2022-11-15T21:56:07;21.77;;;12.40;;
30072;SDS011;16897;52.422;13.678;2022-11-15T22:00:12;17.20;;;11.77;;
30072;SDS011;16897;52.422;13.678;2022-11-15T22:04:33;17.23;;;12.18;;
30072;SDS011;16897;52.422;13.678;2022-11-15T22:08:34;19.33;;;12.98;;
30072;SDS011;16897;52.422;13.678;2022-11-15T22:12:37;18.48;;;11.52;;
30072;SDS011;16897;52.422;13.678;2022-11-15T22:16:39;15.43;;;10.15;;
30072;SDS011;16897;52.422;13.678;2022-11-15T22:20:40;19.23;;;12.43;;
30072;SDS011;16897;52.422;13.678;2022-11-15T22:24:51;20.75;;;13.10;;
30072;SDS011;16897;52.422;13.678;2022-11-15T22:28:53;19.90;;;13.35;;
30072;SDS011;16897;52.422;13.678;2022-11-15T22:32:54;20.08;;;12.88;;
30072;SDS011;16897;52.422;13.678;2022-11-15T22:36:56;19.52;;;12.65;;
30072;SDS011;16897;52.422;13.678;2022-11-15T22:40:58;17.75;;;12.07;;
30072;SDS011;16897;52.422;13.678;2022-11-15T22:45:00;18.10;;;13.18;;
30072;SDS011;16897;52.422;13.678;2022-11-15T22:49:01;24.65;;;16.13;;
30072;SDS011;16897;52.422;13.678;2022-11-15T22:53:03;21.33;;;13.50;;
30072;SDS011;16897;52.422;13.678;2022-11-15T22:57:04;20.92;;;11.60;;
30072;SDS011;16897;52.422;13.678;2022-11-15T23:01:06;22.55;;;12.45;;
30072;SDS011;16897;52.422;13.678;2022-11-15T23:05:18;17.02;;;11.60;;
30072;SDS011;16897;52.422;13.678;2022-11-15T23:09:19;20.20;;;12.75;;
30072;SDS011;16897;52.422;13.678;2022-11-15T23:13:21;16.45;;;11.20;;
30072;SDS011;16897;52.422;13.678;2022-11-15T23:17:25;17.98;;;12.65;;
30072;SDS011;16897;52.422;13.678;2022-11-15T23:21:31;19.83;;;13.38;;
30072;SDS011;16897;52.422;13.678;2022-11-15T23:30:05;19.85;;;10.85;;
30072;SDS011;16897;52.422;13.678;2022-11-15T23:34:26;18.63;;;11.88;;
30072;SDS011;16897;52.422;13.678;2022-11-15T23:38:27;21.30;;;12.98;;
30072;SDS011;16897;52.422;13.678;2022-11-15T23:42:32;17.50;;;11.63;;
30072;SDS011;16897;52.422;13.678;2022-11-15T23:46:33;17.17;;;11.32;;
30072;SDS011;16897;52.422;13.678;2022-11-15T23:50:35;17.33;;;11.30;;
30072;SDS011;16897;52.422;13.678;2022-11-15T23:54:37;20.75;;;12.93;;
30072;SDS011;16897;52.422;13.678;2022-11-15T23:58:40;21.15;;;11.63;;
